Share

Anthony, KS

10:17 PM CDT on April 23, 2014 (GMT -0500)
Caldwell Hess (KKSCALDW8) Elev 1165 ft | 37.04 °N, 97.62 °W | Change Station
Active Advisory: Special Statement

Current weather conditions updated 9 minutes ago

Clear
Clear
69.0 °F
Feels Like 69.0 °F
N
17.0
Wind Variable Wind from NNW
Gusts 25.0 mph
Sunrise 6:47 AM
Sunset 8:14 PM
Moon Waning Crescent

Tomorrow is forecast to be Much Cooler than today. Windy, thunderstorms likely early.

Pressure 29.60 in
Visibility 10.0 miles
Clouds Clear
Dew Point 61 °F
Humidity 75%
Rainfall 0.00 in
Snow Depth Not available.
UV 0.0 out of 16
Pollen 11.60 out of 12
Air Quality Not available.
Flu Activity No Activity
METAR KAVK 240255Z AUTO 17031G44KT 10SM CLR 21/11 A2960 RMK AO2

More Conditions Fewer Conditions

Pressure 29.60 in
Visibility 10.0 miles
Clouds Clear
Dew Point 61 °F
Humidity 75%
Rainfall 0.00 in
Snow Depth Not available.
UV 0.0 out of 16
Pollen 11.60 out of 12
Air Quality Not available.
Flu Activity No Activity
METAR KAVK 240255Z AUTO 17031G44KT 10SM CLR 21/11 A2960 RMK AO2

More Conditions Fewer Conditions

10-Day Weather Forecast

Almanac

Astronomy

Apr. 23, 2014 Rise Set
Actual Time 6:47 AM CDT 8:14 PM CDT
Civil Twilight 6:19 AM CDT 8:41 PM CDT
Nautical Twilight 5:46 AM CDT 9:14 PM CDT
Astronomical Twilight 5:12 AM CDT 9:49 PM CDT
Moon 3:11 AM CDT (4/23) 2:32 PM CDT (4/23)
Length of Visible Light 14h 21m
Length of Day
13h 27m
Tomorrow will be 2m 9s longer.
Waning Crescent, 30% of the Moon is Illuminated
Today
Waning Crescent
Apr 29
New
May 6
First Quarter
May 14
Full
May 21
Last Quarter

Today's Extremes

State Highs State Lows

Community

  • Nestled In
    Nestled In
  • Stunning Sunrise
    Stunning Sunrise
  • spring flowers
    spring flowers
  • Earth Day Spectrum Ove' Blue
    Earth Day Spectrum Ove' Blue
  • BARN B&W
    BARN B&W

WunderPhotos

Upload Photos

1,704,531 photos uploaded!

WunderBlogs® & News

Nearby

Snow Depth

Station Depth Elevation
No new snow has been reported.

Coastal Water Temperatures

Place Temperature
No Stations Reporting

Earthquake Activity

City Distance Mag. Time & Date
Stillwater, Oklahoma 92 miles 2.8 5:30 PM CDT
2014-04-19
Enid, Oklahoma 39 miles 2.9 1:11 PM CDT
2014-04-19
Perry, Oklahoma 74 miles 4.0 5:43 AM CDT
2014-04-19
Stillwater, Oklahoma 93 miles 2.7 3:40 AM CDT
2014-04-19
Minimum magnitude displayed is 2.5.

Nearby Weather Stations

Station Location Temp. Heat Index Dew Point Humidity Wind Precip. Elev Updated Type
DDMET Byron, OK, Amorita, OK 79 °F 79 °F 54 °F 43% North  at  - 0.00 in / hr 1182 ft 7:57 PM CDT MADIS
Caldwell Hess, Caldwell, KS 69.0 °F - 61 °F 75% NNW  at  17.0 mph 0.00 in / hr 1165 ft 10:08 PM CDT Normal
KanOkla, Caldwell, KS 68.4 °F - 60 °F 74% SSW  at  21.0 mph 0.12 in / hr 1168 ft 10:15 PM CDT Normal

Show More Stations Show Fewer Stations

What do you think?

We're not finished. Please let us know what you like, what you don't like, and what you are still missing.